Maud, Texas
Current Conditions -  °F | °C
As of 10:07 AM on Sunday 23 Nov 2014 (Local Time) from KTXK Reporting Station
Overcast Overcast  
Wind Chill: 62°   Ceiling: 700
Heat Index: 62°   Visibility: 10mi
Dew Point: 62°   Wind: 6mph
Humidity: 100%   Direction: 210°SSW
Pressure: 29.52"   Gusts: NA
Location:  33.33°N, 94.34°W
Report Text: KTXK 231607Z 21005KT 10SM BKN007 BKN090 OVC110 17/17 A2952 RMK AO2 RAE06 P0000 T01670167 $
Loading
Personal Weather Stations






























Interactive Weather Map New forecast layout! Learn more

10-Day Weather Forecast

Advertisements
Track Severe Weather on mobile